Time;durP1;ratioP1;P1;durP2;ratioP2;P2;SDS_P1;SDS_P2;PMS_P1;PMS_P2;Temp;Humidity;BMP_temperature;BMP_pressure;BME280_temperature;BME280_humidity;BME280_pressure;Samples;Min_cycle;Max_cycle;Signal;HPM_P1;HPM_P2
2022/08/18 00:08:51;;;;;;;18.40;16.10;;;;;;;21.09;72.29;99157.86;431717;1271;142397;-63
2022/08/18 00:18:58;;;;;;;18.90;17.10;;;;;;;20.98;72.64;99161.23;432130;1271;145754;-64
2022/08/18 00:29:04;;;;;;;16.90;15.30;;;;;;;20.87;73.18;99167.46;431796;1271;142304;-62
2022/08/18 00:39:11;;;;;;;17.50;15.20;;;;;;;20.75;73.51;99174.00;431790;1271;142331;-62
2022/08/18 00:49:17;;;;;;;20.40;18.30;;;;;;;20.62;73.85;99167.77;432838;1271;142529;-63
2022/08/18 00:59:29;;;;;;;18.00;16.30;;;;;;;20.50;74.30;99162.36;431917;1271;143792;-64
2022/08/18 01:09:35;;;;;;;23.10;20.70;;;;;;;20.39;74.82;99163.80;432298;1271;142809;-62
2022/08/18 01:30:09;;;;;;;17.40;15.60;;;;;;;20.24;75.56;99154.04;432185;1271;141736;-64
2022/08/18 01:40:18;;;;;;;18.40;16.60;;;;;;;20.08;75.64;99168.41;432589;1271;142505;-63
2022/08/18 01:50:44;;;;;;;17.30;15.60;;;;;;;19.94;75.97;99170.70;432025;1271;195085;-62
2022/08/18 02:00:50;;;;;;;17.10;15.50;;;;;;;19.79;76.05;99160.71;432505;1271;141089;-63
2022/08/18 02:10:57;;;;;;;21.80;19.60;;;;;;;19.67;76.63;99154.08;432340;1271;142673;-62
2022/08/18 02:21:09;;;;;;;21.30;18.60;;;;;;;19.63;77.52;99158.77;432368;1271;142834;-64
2022/08/18 02:31:19;;;;;;;17.40;15.70;;;;;;;19.58;77.50;99158.98;432750;1271;141267;-61
2022/08/18 02:41:27;;;;;;;20.70;18.80;;;;;;;19.47;77.42;99141.27;432259;1271;141839;-62
2022/08/18 02:51:34;;;;;;;17.30;15.60;;;;;;;19.42;77.60;99135.95;432623;1271;143326;-67
2022/08/18 03:01:43;;;;;;;23.10;20.80;;;;;;;19.33;77.82;99141.38;432436;1271;143022;-62
2022/08/18 03:11:49;;;;;;;23.00;20.80;;;;;;;19.38;78.97;99144.20;431863;1271;142755;-62
2022/08/18 03:21:57;;;;;;;23.50;21.30;;;;;;;19.39;78.95;99141.61;432744;1271;143139;-62
2022/08/18 03:32:09;;;;;;;23.80;21.60;;;;;;;19.43;79.46;99140.77;431929;1271;142196;-63
2022/08/18 03:42:15;;;;;;;26.50;22.60;;;;;;;19.53;79.84;99148.43;431799;1271;142271;-62
2022/08/18 03:52:22;;;;;;;23.60;21.20;;;;;;;19.70;79.82;99153.59;432375;1271;141963;-64
2022/08/18 04:02:28;;;;;;;22.60;19.90;;;;;;;19.88;79.25;99164.33;431552;1271;143098;-64
2022/08/18 04:12:35;;;;;;;26.50;19.70;;;;;;;20.18;78.86;99175.76;432602;1271;146727;-63
2022/08/18 04:22:44;;;;;;;25.90;21.40;;;;;;;20.54;78.11;99176.67;432595;1271;141079;-63
2022/08/18 04:32:49;;;;;;;;;;;;;;;20.93;77.55;99174.77;432175;1271;143211;-61
2022/08/18 04:42:55;;;;;;;19.90;18.00;;;;;;;21.51;76.49;99175.36;432731;1271;128941;-61
2022/08/18 05:03:26;;;;;;;20.00;18.20;;;;;;;22.67;73.89;99194.27;432676;1269;144213;-63
2022/08/18 05:13:32;;;;;;;18.30;16.40;;;;;;;24.16;72.26;99198.79;432314;1271;142262;-63
2022/08/18 05:23:38;;;;;;;16.10;14.40;;;;;;;29.64;65.05;99200.65;431878;1271;142437;-63
2022/08/18 05:33:45;;;;;;;15.30;13.80;;;;;;;33.70;55.47;99199.15;432668;1271;142818;-62
2022/08/18 05:43:53;;;;;;;14.10;12.40;;;;;;;35.90;49.89;99201.77;432404;1271;145270;-62
2022/08/18 06:04:33;;;;;;;11.80;10.80;;;;;;;40.75;39.87;99199.03;432701;1271;141418;-62
2022/08/18 06:14:41;;;;;;;11.30;9.00;;;;;;;41.55;36.79;99209.27;431970;1271;141943;-63
2022/08/18 06:24:53;;;;;;;9.20;8.50;;;;;;;43.01;34.47;99214.91;431831;1271;141522;-62
2022/08/18 06:35:12;;;;;;;11.40;8.40;;;;;;;44.18;31.97;99214.18;430836;1271;1223060;-62
2022/08/18 06:45:20;;;;;;;10.20;9.30;;;;;;;45.15;30.25;99221.13;431182;1271;147531;-62
2022/08/18 06:55:37;;;;;;;10.40;8.40;;;;;;;45.64;28.45;99220.89;431094;1272;141091;-62
2022/08/18 07:06:00;;;;;;;9.60;8.00;;;;;;;46.80;27.14;99225.57;430987;1271;146437;-66
2022/08/18 07:16:22;;;;;;;8.40;7.60;;;;;;;48.35;25.37;99237.08;432177;1271;145346;-64
2022/08/18 07:27:03;;;;;;;8.50;7.50;;;;;;;49.69;23.88;99237.52;431091;1271;140907;-62
2022/08/18 07:37:16;;;;;;;7.50;6.70;;;;;;;51.12;22.46;99237.64;431321;1271;145166;-63
2022/08/18 07:47:27;;;;;;;8.00;7.40;;;;;;;52.01;21.03;99231.81;430748;1271;161613;-62
2022/08/18 07:57:43;;;;;;;7.40;7.00;;;;;;;51.53;20.68;99230.85;431449;1271;141114;-62
2022/08/18 08:07:55;;;;;;;8.30;7.60;;;;;;;51.08;20.14;99237.48;431787;1271;141847;-63
2022/08/18 08:18:12;;;;;;;8.10;7.60;;;;;;;50.14;20.28;99231.82;430076;1272;141100;-63
2022/08/18 08:28:28;;;;;;;6.90;6.30;;;;;;;47.56;20.78;99227.41;431036;1271;141433;-64
2022/08/18 08:38:42;;;;;;;9.80;7.90;;;;;;;41.37;24.79;99222.15;430704;1271;142350;-64
2022/08/18 08:48:56;;;;;;;9.40;8.50;;;;;;;37.85;28.61;99213.60;431556;1271;141650;-64
2022/08/18 08:59:07;;;;;;;9.20;8.50;;;;;;;36.64;30.62;99221.54;431261;1270;140681;-63
2022/08/18 09:09:41;;;;;;;9.20;8.30;;;;;;;35.28;32.08;99228.60;430276;1271;140781;-63
2022/08/18 09:20:10;;;;;;;9.70;8.50;;;;;;;34.91;33.42;99229.16;431134;1270;143387;-61
2022/08/18 09:30:42;;;;;;;9.50;8.60;;;;;;;34.20;34.01;99231.70;430707;1271;141781;-63
2022/08/18 09:51:37;;;;;;;8.90;8.20;;;;;;;33.17;35.78;99240.08;430766;1271;141163;-61
2022/08/18 10:02:05;;;;;;;10.70;8.50;;;;;;;32.89;36.47;99233.23;431055;1271;141087;-60
2022/08/18 10:12:52;;;;;;;9.10;8.20;;;;;;;33.00;36.62;99221.10;431580;1271;182390;-63
2022/08/18 10:22:59;;;;;;;11.60;7.80;;;;;;;32.93;36.87;99209.86;430970;1271;142373;-61
2022/08/18 10:33:08;;;;;;;8.90;7.30;;;;;;;32.74;36.80;99208.83;429880;1271;142392;-63
2022/08/18 10:43:35;;;;;;;8.30;7.20;;;;;;;32.73;36.71;99217.08;430980;1270;146830;-62
2022/08/18 10:54:12;;;;;;;8.50;7.70;;;;;;;32.33;36.88;99213.65;430768;1270;141886;-62
2022/08/18 11:04:29;;;;;;;8.50;7.50;;;;;;;32.21;37.66;99208.10;430846;1271;140574;-64
2022/08/18 11:15:10;;;;;;;9.20;7.50;;;;;;;31.94;37.80;99199.14;430524;1271;163452;-64
2022/08/18 11:25:31;;;;;;;12.60;8.10;;;;;;;31.48;38.47;99183.14;431609;1271;143383;-63
2022/08/18 11:35:52;;;;;;;7.90;7.10;;;;;;;31.52;38.66;99178.32;430173;1271;200852;-64
2022/08/18 11:46:03;;;;;;;6.10;5.50;;;;;;;31.54;38.16;99171.89;431384;1271;141902;-63
2022/08/18 11:56:18;;;;;;;8.00;7.40;;;;;;;31.58;38.02;99176.59;430599;1271;141953;-63
2022/08/18 12:06:37;;;;;;;9.60;7.10;;;;;;;31.16;38.61;99156.30;430613;1271;142334;-64
2022/08/18 12:16:48;;;;;;;8.20;6.30;;;;;;;30.83;38.82;99145.73;431001;1271;196866;-63
2022/08/18 12:26:57;;;;;;;7.20;5.70;;;;;;;30.56;39.09;99138.57;430207;1270;140955;-64
2022/08/18 12:37:08;;;;;;;7.30;6.70;;;;;;;30.67;39.14;99123.39;441315;1271;142724;-63
2022/08/18 12:47:38;;;;;;;7.40;6.80;;;;;;;31.06;38.99;99102.77;434052;1271;142402;-63
2022/08/18 12:57:46;;;;;;;6.80;6.20;;;;;;;30.92;39.18;99099.29;435076;1271;140969;-62
2022/08/18 13:08:19;;;;;;;8.80;6.20;;;;;;;30.60;38.79;99086.98;430861;1272;141733;-62
2022/08/18 13:18:40;;;;;;;8.90;6.10;;;;;;;30.33;39.37;99086.67;431150;1271;141777;-62
2022/08/18 13:28:46;;;;;;;6.50;5.90;;;;;;;30.34;39.29;99084.46;430938;1272;142677;-62
2022/08/18 13:39:03;;;;;;;7.30;6.70;;;;;;;30.30;39.30;99095.11;430120;1271;141549;-62
2022/08/18 13:49:10;;;;;;;10.70;6.30;;;;;;;30.25;39.08;99103.08;430802;1271;142414;-62
2022/08/18 13:59:17;;;;;;;8.00;6.50;;;;;;;30.17;39.45;99102.88;430791;1271;145253;-63
2022/08/18 14:09:25;;;;;;;7.50;6.00;;;;;;;30.13;39.58;99101.80;431061;1271;140967;-64
2022/08/18 14:30:12;;;;;;;8.40;5.90;;;;;;;30.44;39.39;99111.15;430001;1271;141698;-63
2022/08/18 14:40:19;;;;;;;8.60;6.40;;;;;;;30.58;39.47;99115.68;430929;1271;142288;-63
2022/08/18 14:50:26;;;;;;;6.00;5.50;;;;;;;30.29;39.72;99113.34;430188;1271;141905;-64
2022/08/18 15:00:32;;;;;;;6.60;5.90;;;;;;;30.02;39.93;99116.46;430749;1271;140881;-63
2022/08/18 15:10:56;;;;;;;6.40;5.80;;;;;;;29.81;40.06;99116.98;430750;1271;144488;-64
2022/08/18 15:31:45;;;;;;;7.80;5.00;;;;;;;29.85;40.38;99077.89;430862;1270;144618;-62
2022/08/18 15:41:56;;;;;;;5.80;5.20;;;;;;;29.81;40.23;99054.98;431596;1271;141687;-64
2022/08/18 15:52:03;;;;;;;7.40;6.10;;;;;;;29.55;40.66;99053.71;432266;1271;141631;-63
2022/08/18 16:02:10;;;;;;;7.20;5.80;;;;;;;29.36;40.73;99056.67;430299;1271;141246;-63
2022/08/18 16:12:24;;;;;;;8.80;5.70;;;;;;;29.17;41.24;99063.42;431861;1271;140253;-65
2022/08/18 16:22:31;;;;;;;7.60;6.90;;;;;;;28.96;41.86;99054.52;432130;1271;140573;-60
2022/08/18 16:32:37;;;;;;;6.00;5.40;;;;;;;28.70;42.32;99045.90;431791;1272;141934;-64
2022/08/18 16:42:43;;;;;;;9.70;5.90;;;;;;;28.52;42.79;99052.28;432054;1271;141522;-62
2022/08/18 16:52:49;;;;;;;6.50;5.90;;;;;;;28.32;43.45;99065.33;430796;1271;141679;-62
2022/08/18 17:13:19;;;;;;;9.30;6.50;;;;;;;27.94;44.52;99082.38;431497;1271;140508;-63
2022/08/18 17:23:25;;;;;;;12.60;8.00;;;;;;;27.67;45.05;99075.91;431211;1271;144049;-64
2022/08/18 17:33:36;;;;;;;7.70;6.90;;;;;;;27.34;45.91;99059.48;430604;1272;144301;-63
2022/08/18 17:43:42;;;;;;;9.00;7.20;;;;;;;27.00;46.79;99045.65;429907;1271;141445;-64
2022/08/18 17:53:53;;;;;;;8.10;6.30;;;;;;;26.68;47.49;99023.08;431626;1271;146257;-62
2022/08/18 18:03:59;;;;;;;8.30;7.50;;;;;;;26.34;48.39;99020.43;432218;1271;141984;-65
2022/08/18 18:14:25;;;;;;;9.10;7.60;;;;;;;26.03;49.16;99026.77;431296;1271;146224;-63
2022/08/18 18:24:35;;;;;;;13.50;8.90;;;;;;;25.77;49.98;99054.08;430841;1271;142441;-62
2022/08/18 18:35:00;;;;;;;10.60;7.50;;;;;;;25.56;50.78;99077.70;431172;1271;1762659;-63
2022/08/18 18:45:19;;;;;;;12.30;8.20;;;;;;;25.37;51.53;99095.80;436279;1271;141975;-63
2022/08/18 18:55:30;;;;;;;11.00;7.80;;;;;;;25.21;52.19;99126.55;431652;1271;141932;-63
2022/08/18 19:05:43;;;;;;;10.70;8.60;;;;;;;25.01;52.83;99121.65;430506;1272;143362;-64
2022/08/18 19:15:50;;;;;;;10.30;9.30;;;;;;;24.81;53.47;99128.92;431154;1271;141784;-64
2022/08/18 19:25:59;;;;;;;10.10;9.10;;;;;;;24.63;54.12;99128.91;430902;1271;141099;-65
2022/08/18 19:36:24;;;;;;;9.80;8.80;;;;;;;24.50;54.74;99137.20;430950;1271;142341;-64
2022/08/18 19:46:36;;;;;;;11.00;8.20;;;;;;;24.36;55.02;99122.27;431317;1271;140695;-64
2022/08/18 19:57:02;;;;;;;9.20;7.50;;;;;;;24.21;55.35;99114.91;430559;1274;143060;-65
2022/08/18 20:07:43;;;;;;;9.20;8.20;;;;;;;24.06;55.81;99109.96;430487;1271;141970;-64
2022/08/18 20:18:20;;;;;;;8.70;7.90;;;;;;;23.94;56.21;99109.30;431051;1271;142710;-66
2022/08/18 20:28:38;;;;;;;9.60;8.70;;;;;;;23.81;56.38;99095.79;430800;1271;141201;-64
2022/08/18 20:38:46;;;;;;;8.70;7.50;;;;;;;23.66;56.98;99070.12;431286;1271;151760;-66
2022/08/18 20:49:14;;;;;;;9.10;8.20;;;;;;;23.59;57.09;99047.79;431669;1271;141688;-66
2022/08/18 20:59:24;;;;;;;10.30;7.80;;;;;;;23.54;57.37;99037.02;430971;1271;142111;-65
2022/08/18 21:09:31;;;;;;;9.20;7.20;;;;;;;23.47;57.64;99029.34;431104;1271;142087;-66
2022/08/18 21:19:42;;;;;;;9.70;7.30;;;;;;;23.40;57.69;99035.80;430696;1271;141924;-64
2022/08/18 21:29:50;;;;;;;8.00;7.20;;;;;;;23.32;57.93;99026.27;430593;1271;141081;-64
2022/08/18 21:39:59;;;;;;;8.80;8.00;;;;;;;23.18;58.22;99043.55;431466;1271;141714;-66
2022/08/18 21:50:14;;;;;;;8.70;7.80;;;;;;;23.07;58.49;99047.92;430315;1271;147138;-65
2022/08/18 22:00:27;;;;;;;8.10;7.50;;;;;;;23.20;58.85;99062.73;430335;1271;142126;-66
2022/08/18 22:20:58;;;;;;;8.80;8.00;;;;;;;23.07;59.29;99068.27;430628;1271;141930;-63
2022/08/18 22:31:05;;;;;;;9.80;8.70;;;;;;;22.89;59.58;99067.11;430871;1271;143297;-65
2022/08/18 22:41:12;;;;;;;9.30;8.50;;;;;;;22.52;60.30;99064.08;430417;1271;141871;-65
2022/08/18 22:51:20;;;;;;;9.40;8.50;;;;;;;22.26;60.67;99057.80;431148;1271;142190;-64
2022/08/18 23:01:27;;;;;;;13.40;9.20;;;;;;;22.04;61.30;99062.42;431520;1271;142414;-65
2022/08/18 23:11:33;;;;;;;10.40;9.30;;;;;;;21.87;61.98;99063.89;430771;1271;142374;-66
2022/08/18 23:21:40;;;;;;;10.70;8.90;;;;;;;21.73;62.54;99068.80;431269;1271;145596;-64
2022/08/18 23:31:47;;;;;;;11.10;10.00;;;;;;;21.60;63.07;99067.10;430529;1271;190356;-63
2022/08/18 23:41:53;;;;;;;10.50;9.20;;;;;;;21.49;63.54;99061.36;431363;1271;143069;-64
2022/08/18 23:52:01;;;;;;;11.10;9.70;;;;;;;21.41;63.89;99051.86;431082;1271;141929;-64
